Terminal Aerodrome Forecast
Issued by NWS

Home | Current Version | Previous Version | Text Only | Print | Product List | Glossary On
Versions: 1 2 3 4 5 6 7 8 9 10 11 12 13 14 15
000
FTUS43 KGLD 202300 RRA
TAFMCK
TAF
KMCK 202353Z 2100/2124 16010KT P6SM VCSH SCT060 BKN090
     FM210300 VRB06KT P6SM BKN090
     FM211000 36018G27KT P6SM SCT120
     FM212000 02013KT P6SM SCT120=

USA.gov is the U.S. government's official web portal to all federal, state and local government web resources and services.